createdAt,value
2023-03-24T02:01:30.683Z,11.30
2023-03-24T02:04:03.865Z,11.20
2023-03-24T02:06:33.287Z,11.30
2023-03-24T02:09:02.339Z,11.20
2023-03-24T02:11:34.643Z,11.30
2023-03-24T02:14:02.587Z,11.30
2023-03-24T02:17:06.168Z,11.30
2023-03-24T02:20:11.681Z,11.30
2023-03-24T02:23:21.564Z,11.30
2023-03-24T02:26:29.311Z,11.30
2023-03-24T02:29:08.372Z,11.30
2023-03-24T02:31:59.195Z,11.30
2023-03-24T02:35:06.423Z,11.30
2023-03-24T02:38:05.209Z,11.30
2023-03-24T02:40:42.029Z,11.30
2023-03-24T02:43:28.319Z,11.30
2023-03-24T02:46:13.356Z,11.30
2023-03-24T02:48:53.415Z,11.20
2023-03-24T02:51:27.300Z,11.30
2023-03-24T02:54:04.369Z,11.30
2023-03-24T02:56:38.992Z,11.30
2023-03-24T02:59:08.373Z,11.30
2023-03-24T03:01:41.215Z,11.30
2023-03-24T03:04:12.738Z,11.30
2023-03-24T03:06:44.379Z,11.30
2023-03-24T03:09:15.195Z,11.20
2023-03-24T03:11:48.691Z,11.20
2023-03-24T03:14:23.258Z,11.20
2023-03-24T03:16:59.908Z,11.20
2023-03-24T03:19:33.616Z,11.20
2023-03-24T03:22:03.382Z,11.20
2023-03-24T03:24:36.128Z,11.20
2023-03-24T03:27:10.328Z,11.30
2023-03-24T03:29:42.359Z,11.30
2023-03-24T03:32:15.538Z,11.30
2023-03-24T03:34:47.260Z,11.30
2023-03-24T03:37:23.978Z,11.30
2023-03-24T03:39:55.629Z,11.30
2023-03-24T03:42:25.819Z,11.30
2023-03-24T03:44:54.238Z,11.20
2023-03-24T03:47:23.124Z,11.30
2023-03-24T03:49:52.177Z,11.30
2023-03-24T03:52:20.839Z,11.30
2023-03-24T03:54:49.090Z,11.30
2023-03-24T03:57:17.466Z,11.30
2023-03-24T03:59:46.784Z,11.30
2023-03-24T04:02:30.912Z,11.30
2023-03-24T04:05:14.912Z,11.30
2023-03-24T04:08:03.486Z,11.20
2023-03-24T04:10:38.759Z,11.30
2023-03-24T04:13:16.211Z,11.30
2023-03-24T04:15:51.559Z,11.30
2023-03-24T04:18:43.552Z,11.30
2023-03-24T04:21:28.483Z,11.30
2023-03-24T04:24:10.266Z,11.30
2023-03-24T04:26:49.324Z,11.30
2023-03-24T04:29:22.315Z,11.30
2023-03-24T04:31:55.222Z,11.30
2023-03-24T04:34:29.528Z,11.30
2023-03-24T04:37:03.949Z,11.30
2023-03-24T04:39:38.753Z,11.30
2023-03-24T04:42:11.276Z,11.30
2023-03-24T04:44:41.592Z,11.30
2023-03-24T04:47:12.820Z,11.30
2023-03-24T04:49:40.980Z,11.30
2023-03-24T04:52:09.576Z,11.30
2023-03-24T04:54:37.438Z,11.30
2023-03-24T04:57:05.744Z,11.30
2023-03-24T04:59:34.490Z,11.30
2023-03-24T05:02:03.189Z,11.30
2023-03-24T05:04:36.739Z,11.30
2023-03-24T05:07:04.826Z,11.30
2023-03-24T05:09:32.830Z,11.30
2023-03-24T05:12:01.963Z,11.30
2023-03-24T05:14:29.885Z,11.30
2023-03-24T05:16:57.670Z,11.30
2023-03-24T05:19:25.572Z,11.30
2023-03-24T05:21:54.815Z,11.30
2023-03-24T05:24:23.166Z,11.30
2023-03-24T05:26:50.933Z,11.40
2023-03-24T05:29:18.751Z,11.40
2023-03-24T05:31:46.896Z,11.40
2023-03-24T05:34:14.686Z,11.40
2023-03-24T05:36:42.454Z,11.30
2023-03-24T05:39:11.591Z,11.40
2023-03-24T05:41:39.831Z,11.40
2023-03-24T05:44:07.648Z,11.40
2023-03-24T05:46:35.727Z,11.40
2023-03-24T05:49:03.682Z,11.40
2023-03-24T05:51:31.515Z,11.40
2023-03-24T05:53:59.346Z,11.40
2023-03-24T05:56:28.907Z,11.40
2023-03-24T05:58:56.698Z,11.40
2023-03-24T06:01:25.284Z,11.40
2023-03-24T06:03:53.181Z,11.40
2023-03-24T06:06:21.035Z,11.40
2023-03-24T06:08:49.482Z,11.40
2023-03-24T06:11:17.437Z,11.40
2023-03-24T06:13:46.559Z,11.40
2023-03-24T06:16:14.491Z,11.40
2023-03-24T06:18:42.842Z,11.40
2023-03-24T06:21:10.715Z,11.40
2023-03-24T06:23:38.837Z,11.50
2023-03-24T06:26:11.482Z,11.40
2023-03-24T06:28:39.801Z,11.50
2023-03-24T06:31:14.766Z,11.40
2023-03-24T06:33:43.448Z,11.50
2023-03-24T06:36:12.817Z,11.50
2023-03-24T06:38:41.825Z,11.50
2023-03-24T06:41:10.049Z,11.50
2023-03-24T06:43:37.881Z,11.50
2023-03-24T06:46:06.020Z,11.50
2023-03-24T06:48:35.706Z,11.50
2023-03-24T06:51:04.504Z,11.50
2023-03-24T06:53:32.459Z,11.50
2023-03-24T06:56:00.368Z,11.50
2023-03-24T06:58:28.389Z,11.50
2023-03-24T07:00:56.335Z,11.50
2023-03-24T07:03:25.033Z,11.50
2023-03-24T07:05:55.412Z,11.60
2023-03-24T07:08:37.589Z,11.50
2023-03-24T07:11:07.454Z,11.60
2023-03-24T07:13:35.299Z,11.50
2023-03-24T07:16:04.776Z,11.60
2023-03-24T07:18:32.661Z,11.60
2023-03-24T07:21:01.851Z,11.60
2023-03-24T07:23:30.335Z,11.60
2023-03-24T07:25:58.403Z,11.60
2023-03-24T07:28:26.552Z,11.60
2023-03-24T07:30:55.486Z,11.60
2023-03-24T07:33:24.915Z,11.60
2023-03-24T07:35:57.097Z,11.60
2023-03-24T07:38:26.676Z,11.60
2023-03-24T07:40:54.630Z,11.70
2023-03-24T07:43:22.866Z,11.70
2023-03-24T07:45:51.053Z,11.70
2023-03-24T07:48:18.944Z,11.70
2023-03-24T07:50:47.193Z,11.70
2023-03-24T07:53:18.563Z,11.70
2023-03-24T07:55:48.404Z,11.70
2023-03-24T07:58:18.708Z,11.70
2023-03-24T08:00:46.746Z,11.70
2023-03-24T08:03:15.621Z,11.70
2023-03-24T08:05:44.357Z,11.70
2023-03-24T08:08:12.115Z,11.70
2023-03-24T08:10:39.994Z,11.70
2023-03-24T08:13:09.210Z,11.70
2023-03-24T08:15:37.838Z,11.80
2023-03-24T08:18:06.379Z,11.70
2023-03-24T08:20:34.188Z,11.80
2023-03-24T08:23:04.805Z,11.80
2023-03-24T08:25:33.326Z,11.80
2023-03-24T08:28:01.229Z,11.80
2023-03-24T08:30:30.485Z,11.80
2023-03-24T08:33:00.370Z,11.80
2023-03-24T08:35:31.359Z,11.80
2023-03-24T08:38:01.124Z,11.90
2023-03-24T08:40:31.699Z,11.80
2023-03-24T08:43:02.320Z,11.90
2023-03-24T08:45:33.228Z,11.80
2023-03-24T08:48:03.474Z,11.90
2023-03-24T08:50:34.492Z,11.90
2023-03-24T08:53:03.547Z,11.90
2023-03-24T08:55:31.469Z,11.90
2023-03-24T08:57:59.307Z,11.90
2023-03-24T09:00:28.761Z,11.90
2023-03-24T09:02:58.443Z,11.90
2023-03-24T09:05:37.095Z,11.90
2023-03-24T09:08:12.297Z,11.90
2023-03-24T09:10:40.726Z,12.00
2023-03-24T09:13:11.103Z,12.00
2023-03-24T09:15:39.768Z,12.00
2023-03-24T09:18:09.138Z,12.00
2023-03-24T09:20:37.032Z,12.00
2023-03-24T09:23:04.797Z,12.00
2023-03-24T09:25:32.619Z,12.00
2023-03-24T09:28:00.820Z,12.00
2023-03-24T09:30:30.532Z,12.00
2023-03-24T09:32:59.396Z,12.00
2023-03-24T09:35:29.447Z,12.00
2023-03-24T09:37:57.565Z,12.10
2023-03-24T09:40:27.674Z,12.10
2023-03-24T09:43:01.048Z,12.10
2023-03-24T09:45:34.173Z,12.10
2023-03-24T09:48:05.783Z,12.10
2023-03-24T09:50:41.173Z,12.10
2023-03-24T09:53:17.807Z,12.20
2023-03-24T09:55:46.698Z,12.10
2023-03-24T09:58:14.772Z,12.10
2023-03-24T10:00:43.571Z,12.20
2023-03-24T10:03:20.264Z,12.20
2023-03-24T10:05:55.446Z,12.20
2023-03-24T10:08:29.417Z,12.20
2023-03-24T10:11:01.833Z,12.20
2023-03-24T10:13:42.866Z,12.30
2023-03-24T10:16:17.498Z,12.30
2023-03-24T10:18:53.210Z,12.20
2023-03-24T10:21:26.131Z,12.30
2023-03-24T10:24:05.002Z,12.30
2023-03-24T10:26:40.706Z,12.30
2023-03-24T10:29:22.898Z,12.30
2023-03-24T10:31:53.781Z,12.30
2023-03-24T10:34:25.923Z,12.30
2023-03-24T10:36:56.133Z,12.40
2023-03-24T10:39:34.270Z,12.40
2023-03-24T10:42:16.997Z,12.40
2023-03-24T10:44:45.343Z,12.40
2023-03-24T10:47:16.102Z,12.40
2023-03-24T10:49:55.108Z,12.40
2023-03-24T10:52:25.392Z,12.40
2023-03-24T10:54:58.346Z,12.50
2023-03-24T10:57:27.685Z,12.50
2023-03-24T10:59:59.510Z,12.50
2023-03-24T11:02:30.646Z,12.50
2023-03-24T11:05:02.185Z,12.50
2023-03-24T11:07:35.278Z,12.50
2023-03-24T11:10:07.378Z,12.50
2023-03-24T11:12:37.890Z,12.50
2023-03-24T11:15:20.998Z,12.50
2023-03-24T11:17:55.808Z,12.50
2023-03-24T11:20:29.553Z,12.60
2023-03-24T11:23:02.208Z,12.60
2023-03-24T11:25:34.171Z,12.60
2023-03-24T11:28:04.915Z,12.60
2023-03-24T11:30:36.924Z,12.60
2023-03-24T11:33:06.240Z,12.60
2023-03-24T11:35:41.667Z,12.60
2023-03-24T11:38:18.155Z,12.60
2023-03-24T11:40:59.472Z,12.70
2023-03-24T11:43:28.128Z,12.60
2023-03-24T11:46:01.085Z,12.70
2023-03-24T11:48:34.734Z,12.70
2023-03-24T11:51:05.523Z,12.70
2023-03-24T11:53:40.767Z,12.70
2023-03-24T11:56:15.914Z,12.70
2023-03-24T11:58:47.836Z,12.70
2023-03-24T12:02:14.588Z,12.70
2023-03-24T12:05:05.026Z,12.70
2023-03-24T12:07:53.121Z,12.70
2023-03-24T12:10:38.092Z,12.70
2023-03-24T12:13:18.953Z,12.70
2023-03-24T12:16:06.288Z,12.80
2023-03-24T12:18:47.900Z,12.80
2023-03-24T12:21:26.297Z,12.80
2023-03-24T12:23:59.120Z,12.80
2023-03-24T12:26:33.067Z,12.70
2023-03-24T12:29:24.650Z,12.80
2023-03-24T12:32:14.722Z,12.80
2023-03-24T12:35:13.539Z,12.80
2023-03-24T12:37:50.455Z,12.80
2023-03-24T12:41:01.190Z,12.80
2023-03-24T12:43:39.922Z,12.80
2023-03-24T12:46:22.678Z,12.90
2023-03-24T12:49:04.400Z,12.80
2023-03-24T12:51:42.638Z,12.80
2023-03-24T12:54:27.623Z,12.80
2023-03-24T12:57:04.984Z,12.90
2023-03-24T12:59:48.445Z,12.90
2023-03-24T13:02:26.921Z,12.90
2023-03-24T13:05:03.009Z,12.90
2023-03-24T13:07:33.738Z,12.90
2023-03-24T13:10:08.698Z,12.90
2023-03-24T13:12:44.657Z,12.90
2023-03-24T13:15:19.612Z,12.90
2023-03-24T13:17:58.156Z,13.00
2023-03-24T13:20:33.232Z,13.00
2023-03-24T13:23:37.777Z,13.00
2023-03-24T13:26:15.084Z,13.00
2023-03-24T13:29:01.586Z,13.00
2023-03-24T13:31:37.034Z,13.00
2023-03-24T13:34:10.651Z,13.10
2023-03-24T13:36:47.938Z,13.10
2023-03-24T13:39:22.841Z,13.10
2023-03-24T13:41:53.024Z,13.10
2023-03-24T13:44:23.649Z,13.10
2023-03-24T13:47:13.707Z,13.10
2023-03-24T13:50:09.061Z,13.10
2023-03-24T13:52:44.897Z,13.10
2023-03-24T13:55:36.409Z,13.10
2023-03-24T13:58:10.776Z,13.20
2023-03-24T14:01:32.674Z,13.20
2023-03-24T14:04:32.134Z,13.20
2023-03-24T14:07:23.209Z,13.20
2023-03-24T14:10:17.644Z,13.20
2023-03-24T14:12:54.426Z,13.20
2023-03-24T14:15:23.224Z,13.30
2023-03-24T14:17:55.609Z,13.30
2023-03-24T14:20:44.519Z,13.30
2023-03-24T14:23:24.062Z,13.30
2023-03-24T14:25:59.591Z,13.30
2023-03-24T14:28:39.135Z,13.30
2023-03-24T14:31:20.455Z,13.30
2023-03-24T14:34:06.850Z,13.30
2023-03-24T14:36:39.862Z,13.30
2023-03-24T14:39:13.160Z,13.40
2023-03-24T14:41:45.735Z,13.40
2023-03-24T14:44:13.725Z,13.40
2023-03-24T14:47:06.002Z,13.40
2023-03-24T14:49:58.889Z,13.40
2023-03-24T14:52:57.277Z,13.40
2023-03-24T14:55:30.033Z,13.40
2023-03-24T14:58:21.865Z,13.50
2023-03-24T15:01:14.133Z,13.40
2023-03-24T15:03:53.211Z,13.50
2023-03-24T15:06:23.237Z,13.50
2023-03-24T15:08:54.007Z,13.50
2023-03-24T15:11:25.900Z,13.50
2023-03-24T15:14:31.901Z,13.50
2023-03-24T15:17:04.289Z,13.50
2023-03-24T15:19:35.410Z,13.50
2023-03-24T15:22:04.557Z,13.50
2023-03-24T15:24:36.025Z,13.50
2023-03-24T15:27:27.450Z,13.50
2023-03-24T15:29:58.854Z,13.50
2023-03-24T15:32:43.679Z,13.50
2023-03-24T15:35:42.889Z,13.60
2023-03-24T15:38:41.062Z,13.50
2023-03-24T15:41:31.121Z,13.60
2023-03-24T15:44:17.879Z,13.60
2023-03-24T15:46:46.194Z,13.50
2023-03-24T15:49:23.459Z,13.60
2023-03-24T15:52:00.269Z,13.60
2023-03-24T15:54:30.956Z,13.60
2023-03-24T15:57:17.880Z,13.50
2023-03-24T15:59:51.920Z,13.60
2023-03-24T16:02:31.176Z,13.60
2023-03-24T16:05:10.824Z,13.60
2023-03-24T16:07:40.818Z,13.60
2023-03-24T16:10:26.790Z,13.60
2023-03-24T16:13:31.379Z,13.60
2023-03-24T16:16:23.588Z,13.60
2023-03-24T16:19:01.671Z,13.60
2023-03-24T16:21:31.015Z,13.50
2023-03-24T16:24:04.956Z,13.60
2023-03-24T16:26:34.270Z,13.60
2023-03-24T16:29:18.920Z,13.60
2023-03-24T16:31:49.663Z,13.60
2023-03-24T16:34:18.620Z,13.60
2023-03-24T16:36:46.832Z,13.60
2023-03-24T16:39:34.114Z,13.60
2023-03-24T16:42:01.970Z,13.60
2023-03-24T16:44:33.018Z,13.60
2023-03-24T16:47:00.868Z,13.60
2023-03-24T16:50:48.597Z,13.60
2023-03-24T16:54:21.539Z,13.60
2023-03-24T16:57:47.087Z,13.60
2023-03-24T17:00:20.604Z,13.60
2023-03-24T17:02:53.612Z,13.60
2023-03-24T17:05:25.300Z,13.50
2023-03-24T17:07:53.162Z,13.50
2023-03-24T17:14:01.848Z,13.50
2023-03-24T17:19:36.434Z,13.50
2023-03-24T17:22:06.246Z,13.50
2023-03-24T17:24:36.625Z,13.40
2023-03-24T17:27:05.346Z,13.50
2023-03-24T17:29:36.494Z,13.40
2023-03-24T17:32:11.360Z,13.40
2023-03-24T17:34:39.188Z,13.40
2023-03-24T17:37:07.476Z,13.40
2023-03-24T17:39:35.288Z,13.40
2023-03-24T17:42:03.187Z,13.40
2023-03-24T17:44:34.154Z,13.40
2023-03-24T17:47:01.958Z,13.30
2023-03-24T17:49:31.389Z,13.30
2023-03-24T17:52:01.072Z,13.30
2023-03-24T17:54:29.303Z,13.30
2023-03-24T17:56:57.155Z,13.30
2023-03-24T17:59:24.991Z,13.20
2023-03-24T18:01:55.449Z,13.20
2023-03-24T18:04:23.774Z,13.20
2023-03-24T18:06:54.058Z,13.20
2023-03-24T18:09:21.987Z,13.10
2023-03-24T18:11:49.813Z,13.00
2023-03-24T18:14:17.604Z,13.00
2023-03-24T18:16:45.508Z,13.00
2023-03-24T18:19:13.391Z,13.00
2023-03-24T18:21:44.284Z,13.00
2023-03-24T18:24:13.495Z,12.90
2023-03-24T18:26:41.364Z,12.90
2023-03-24T18:29:09.871Z,12.90
2023-03-24T18:31:38.011Z,12.80
2023-03-24T18:34:05.987Z,12.80
2023-03-24T18:39:40.538Z,12.80
2023-03-24T18:42:11.057Z,12.80
2023-03-24T18:44:46.579Z,12.70
2023-03-24T18:47:20.198Z,12.70
2023-03-24T18:49:47.955Z,12.70
2023-03-24T18:52:20.573Z,12.60
2023-03-24T18:54:53.203Z,12.60
2023-03-24T18:57:22.600Z,12.50
2023-03-24T18:59:50.645Z,12.50
2023-03-24T19:02:18.533Z,12.50
2023-03-24T19:04:48.079Z,12.50
2023-03-24T19:07:27.433Z,12.50
2023-03-24T19:10:06.004Z,12.40
2023-03-24T19:12:35.959Z,12.40
2023-03-24T19:15:04.699Z,12.40
2023-03-24T19:17:33.160Z,12.40
2023-03-24T19:20:07.124Z,12.30
2023-03-24T19:22:34.888Z,12.30
2023-03-24T19:25:03.442Z,12.30
2023-03-24T19:27:32.577Z,12.20
2023-03-24T19:30:04.738Z,12.20
2023-03-24T19:32:32.644Z,12.20
2023-03-24T19:35:01.343Z,12.20
2023-03-24T19:37:38.107Z,12.20
2023-03-24T19:40:17.602Z,12.10
2023-03-24T19:42:50.744Z,12.10
2023-03-24T19:45:25.394Z,12.10
2023-03-24T19:47:58.457Z,12.00
2023-03-24T19:50:33.387Z,12.00
2023-03-24T19:53:09.822Z,12.00
2023-03-24T19:55:37.976Z,12.00
2023-03-24T19:58:10.448Z,11.90
2023-03-24T20:00:41.431Z,11.90
2023-03-24T20:03:09.580Z,11.90
2023-03-24T20:05:37.457Z,11.90
2023-03-24T20:08:19.731Z,11.90
2023-03-24T20:10:51.925Z,11.90
2023-03-24T20:13:29.775Z,11.80
2023-03-24T20:16:01.489Z,11.80
2023-03-24T20:18:31.543Z,11.80
2023-03-24T20:22:14.699Z,11.80
2023-03-24T20:24:50.023Z,11.80
2023-03-24T20:27:20.814Z,11.70
2023-03-24T20:30:10.643Z,11.70
2023-03-24T20:32:43.800Z,11.70
2023-03-24T20:35:18.574Z,11.70
2023-03-24T20:37:47.730Z,11.70
2023-03-24T20:40:26.653Z,11.70
2023-03-24T20:43:05.528Z,11.60
2023-03-24T20:45:36.984Z,11.60
2023-03-24T20:48:06.868Z,11.60
2023-03-24T20:50:36.632Z,11.60
2023-03-24T20:53:04.497Z,11.60
2023-03-24T20:55:37.488Z,11.60
2023-03-24T20:58:14.701Z,11.50
2023-03-24T21:00:54.074Z,11.50
2023-03-24T21:03:26.167Z,11.50
2023-03-24T21:05:56.091Z,11.50
2023-03-24T21:08:24.133Z,11.50
2023-03-24T21:10:56.339Z,11.50
2023-03-24T21:13:24.682Z,11.50
2023-03-24T21:15:54.194Z,11.50
2023-03-24T21:18:22.218Z,11.40
2023-03-24T21:20:54.999Z,11.40
2023-03-24T21:23:25.576Z,11.40
2023-03-24T21:25:53.454Z,11.40
2023-03-24T21:28:32.705Z,11.30
2023-03-24T21:31:11.392Z,11.30
2023-03-24T21:33:45.465Z,11.30
2023-03-24T21:36:15.896Z,11.30
2023-03-24T21:38:44.446Z,11.30
2023-03-24T21:41:12.738Z,11.30
2023-03-24T21:43:51.326Z,11.30
2023-03-24T21:46:26.421Z,11.20
2023-03-24T21:48:59.983Z,11.20
2023-03-24T21:51:33.738Z,11.20
2023-03-24T21:54:05.184Z,11.20
2023-03-24T21:56:33.759Z,11.20
2023-03-24T21:59:02.005Z,11.20
2023-03-24T22:01:33.878Z,11.20
2023-03-24T22:04:03.892Z,11.10
2023-03-24T22:06:39.769Z,11.10
2023-03-24T22:09:10.160Z,11.10
2023-03-24T22:11:42.936Z,11.10
2023-03-24T22:14:15.276Z,11.10
2023-03-24T22:16:48.166Z,11.10
2023-03-24T22:19:18.827Z,11.00
2023-03-24T22:21:49.458Z,11.10
2023-03-24T22:24:17.503Z,11.00
2023-03-24T22:26:53.867Z,11.00
2023-03-24T22:29:21.620Z,11.00
2023-03-24T22:31:50.825Z,11.00
2023-03-24T22:34:18.627Z,11.00
2023-03-24T22:36:46.406Z,10.90
2023-03-24T22:39:14.394Z,10.90
2023-03-24T22:41:43.645Z,10.90
2023-03-24T22:44:11.475Z,10.90
2023-03-24T22:46:39.472Z,10.90
2023-03-24T22:49:08.671Z,10.90
2023-03-24T22:51:36.471Z,10.90
2023-03-24T22:54:05.320Z,10.90
2023-03-24T22:56:36.077Z,10.90
2023-03-24T22:59:04.320Z,10.90
2023-03-24T23:01:32.202Z,10.90
2023-03-24T23:04:00.572Z,10.80
2023-03-24T23:06:29.767Z,10.80
2023-03-24T23:08:59.387Z,10.80
2023-03-24T23:11:27.350Z,10.80
2023-03-24T23:14:02.274Z,10.80
2023-03-24T23:16:30.043Z,10.80
2023-03-24T23:18:57.918Z,10.80
2023-03-24T23:21:25.760Z,10.70
2023-03-24T23:23:55.083Z,10.80
2023-03-24T23:26:25.561Z,10.70
2023-03-24T23:28:54.349Z,10.70
2023-03-24T23:31:24.817Z,10.70
2023-03-24T23:33:55.740Z,10.70
2023-03-24T23:36:26.180Z,10.70
2023-03-24T23:38:55.648Z,10.70
2023-03-24T23:41:24.417Z,10.70
2023-03-24T23:43:53.207Z,10.70
2023-03-24T23:46:21.854Z,10.70
2023-03-24T23:48:49.662Z,10.70
2023-03-24T23:51:17.566Z,10.70
2023-03-24T23:53:46.006Z,10.70
2023-03-24T23:56:15.259Z,10.60
2023-03-24T23:58:43.551Z,10.60
